Los Angeles, CA (90002)

7:23 PM PDT on September 01, 2015 (GMT -0700)
South Gate Park | | Change Station
CLOSE
Current Station
Personal Weather Station
Location: South Gate, CA
Elevation: 112 ft
Nearby Weather Stations

Elev 112 ft 33.95 °N, 118.19 °W | Updated 2 minutes ago

Partly Cloudy
Partly Cloudy
71.8 °F
Feels Like 73 °F
N
4.2
Wind Variable Wind from SSW

Today
High -- | Low -- °F
--% Chance of Precip.
Yesterday
High -- | Low -- °F
Precip. -- in
6:26 AM 7:18 PM
Waning Gibbous, 84% visible
Pressure 29.90 in
Visibility 10.0 miles
Clouds Clear
Heat Index 73 °F
Dew Point 63 °F
Humidity 75%
Rainfall 0.00 in
Snow Depth Not available.
UV 0 out of 12
Pollen 7.20 out of 12
Air Quality Not available.
Flu Activity Not available.
METAR KHHR 020153Z 24007KT 10SM CLR 22/17 A2990 RMK AO2 SLP123 T02220167
Pressure 29.90 in
Visibility 10.0 miles
Clouds Clear
Heat Index 73 °F
Dew Point 63 °F
Humidity 75%
Rainfall 0.00 in
Snow Depth Not available.
UV 0 out of 12
Pollen 7.20 out of 12
Air Quality Not available.
Flu Activity Not available.
METAR KHHR 020153Z 24007KT 10SM CLR 22/17 A2990 RMK AO2 SLP123 T02220167

10-Day Weather Forecast

×

Almanac

Astronomy

Sep. 01, 2015 Rise Set
Actual Time
Civil Twilight
Nautical Twilight
Astronomical Twilight
Moon
Length of Visible Light
Length of Day
Tomorrow will be .
, % of the Moon is Illuminated

Today's Extremes

State Highs State Lows

Community

WunderPhotos

Upload Photos

1,851,679 photos uploaded!

WunderBlogs® & News

Nearby

Air Quality

  Air Quality AQ Index Pollutant
Not available.

Snow Depth

Station Depth Elevation

Earthquake Activity

City Distance Mag. Time & Date
Minimum magnitude displayed is 2.5.

Coastal Water Temperatures

Place Temperature

Stations

Nearby Weather Stations

Station Location Temp. Windchill Dew Point Humidity Wind Precip. Elev Updated Type